Terminal Aerodrome Forecast
Issued by NWS

Home | Current Version | Previous Version | Text Only | Print | Product List | Glossary On
Versions: 1 2 3 4 5 6 7 8 9 10 11 12 13 14 15 16 17
000
FTUS42 KRAH 272345 CCA
TAFINT
TAF COR
KINT 272345Z 2800/2824 VRB10G20KT P6SM VCTS BKN050CB
      TEMPO 2800/2801 VRB12G30KT 1SM TSRA BKN040CB
     FM280300 VRB03KT P6SM SCT250=

USA.gov is the U.S. government's official web portal to all federal, state and local government web resources and services.